Terminal Aerodrome Forecast
Issued by NWS Shreveport, LA

Home | Current Version | Previous Version | Text Only | Print | Product List | Glossary On
Versions: 1 2 3 4 5 6 7 8 9 10 11 12 13 14 15 16 17
475
FTUS44 KSHV 310548
TAFMLU
TAF
KMLU 310548Z 3106/0106 VRB03KT P6SM VCSH BKN035 BKN150 BKN250
      TEMPO 3106/3108 6SM -TSRA BKN045CB OVC250
     FM310800 VRB03KT P6SM SCT050 BKN150
      TEMPO 3108/3112 4SM BR
     FM311500 18004KT P6SM SCT040 SCT150 SCT250=

USA.gov is the U.S. government's official web portal to all federal, state and local government web resources and services.